sensor_id;sensor_type;location;lat;lon;timestamp;pressure;altitude;pressure_sealevel;temperature;humidity
80678;BME280;70042;52.494;5.502;2024-02-15T00:00:15;101700.88;;;15.96;62.74
80678;BME280;70042;52.494;5.502;2024-02-15T00:02:42;101692.94;;;15.95;62.97
80678;BME280;70042;52.494;5.502;2024-02-15T00:05:12;101704.41;;;15.94;62.42
80678;BME280;70042;52.494;5.502;2024-02-15T00:07:40;101697.34;;;15.93;62.59
80678;BME280;70042;52.494;5.502;2024-02-15T00:10:05;101702.63;;;15.93;62.63
80678;BME280;70042;52.494;5.502;2024-02-15T00:12:31;101708.75;;;15.95;62.94
80678;BME280;70042;52.494;5.502;2024-02-15T00:14:57;101703.50;;;15.95;62.54
80678;BME280;70042;52.494;5.502;2024-02-15T00:17:27;101700.00;;;15.93;63.03
80678;BME280;70042;52.494;5.502;2024-02-15T00:19:54;101697.34;;;15.93;62.96
80678;BME280;70042;52.494;5.502;2024-02-15T00:22:20;101702.63;;;15.94;62.87
80678;BME280;70042;52.494;5.502;2024-02-15T00:24:46;101699.09;;;15.95;62.59
80678;BME280;70042;52.494;5.502;2024-02-15T00:27:11;101692.94;;;15.95;62.30
80678;BME280;70042;52.494;5.502;2024-02-15T00:29:37;101697.38;;;15.94;62.58
80678;BME280;70042;52.494;5.502;2024-02-15T00:32:03;101703.50;;;15.93;62.88
80678;BME280;70042;52.494;5.502;2024-02-15T00:34:29;101693.84;;;15.92;62.82
80678;BME280;70042;52.494;5.502;2024-02-15T00:36:54;101694.72;;;15.93;63.23
80678;BME280;70042;52.494;5.502;2024-02-15T00:39:19;101694.72;;;15.93;62.59
80678;BME280;70042;52.494;5.502;2024-02-15T00:41:45;101697.34;;;15.93;62.95
80678;BME280;70042;52.494;5.502;2024-02-15T00:44:11;101697.34;;;15.93;62.53
80678;BME280;70042;52.494;5.502;2024-02-15T00:46:37;101700.00;;;15.93;62.62
80678;BME280;70042;52.494;5.502;2024-02-15T00:49:03;101698.22;;;15.95;62.49
80678;BME280;70042;52.494;5.502;2024-02-15T00:51:32;101694.72;;;15.96;62.64
80678;BME280;70042;52.494;5.502;2024-02-15T00:53:58;101682.44;;;15.93;62.91
80678;BME280;70042;52.494;5.502;2024-02-15T00:56:24;101687.69;;;15.96;63.12
80678;BME280;70042;52.494;5.502;2024-02-15T00:58:50;101686.81;;;15.96;62.98
80678;BME280;70042;52.494;5.502;2024-02-15T01:01:15;101689.44;;;15.96;62.50
80678;BME280;70042;52.494;5.502;2024-02-15T01:03:40;101683.28;;;15.97;62.87
80678;BME280;70042;52.494;5.502;2024-02-15T01:06:06;101688.56;;;15.97;62.65
80678;BME280;70042;52.494;5.502;2024-02-15T01:08:32;101685.06;;;15.96;62.73
80678;BME280;70042;52.494;5.502;2024-02-15T01:10:58;101682.41;;;15.95;62.64
80678;BME280;70042;52.494;5.502;2024-02-15T01:13:23;101682.44;;;15.93;62.56
80678;BME280;70042;52.494;5.502;2024-02-15T01:15:49;101677.13;;;15.95;62.80
80678;BME280;70042;52.494;5.502;2024-02-15T01:18:15;101675.41;;;15.94;62.56
80678;BME280;70042;52.494;5.502;2024-02-15T01:20:40;101679.78;;;15.92;63.01
80678;BME280;70042;52.494;5.502;2024-02-15T01:23:06;101674.53;;;15.93;63.03
80678;BME280;70042;52.494;5.502;2024-02-15T01:25:33;101672.78;;;15.94;62.59
80678;BME280;70042;52.494;5.502;2024-02-15T01:27:58;101671.88;;;15.95;62.59
80678;BME280;70042;52.494;5.502;2024-02-15T01:30:24;101673.63;;;15.96;62.76
80678;BME280;70042;52.494;5.502;2024-02-15T01:32:49;101667.47;;;15.95;62.49
80678;BME280;70042;52.494;5.502;2024-02-15T01:35:15;101669.25;;;15.96;62.70
80678;BME280;70042;52.494;5.502;2024-02-15T01:37:40;101677.16;;;15.96;63.01
80678;BME280;70042;52.494;5.502;2024-02-15T01:40:06;101682.41;;;15.96;63.03
80678;BME280;70042;52.494;5.502;2024-02-15T01:42:32;101677.16;;;15.96;63.05
80678;BME280;70042;52.494;5.502;2024-02-15T01:44:58;101672.78;;;15.94;62.64
80678;BME280;70042;52.494;5.502;2024-02-15T01:47:23;101678.91;;;15.96;63.04
80678;BME280;70042;52.494;5.502;2024-02-15T01:49:49;101676.28;;;15.93;62.81
80678;BME280;70042;52.494;5.502;2024-02-15T01:52:16;101673.66;;;15.93;63.06
80678;BME280;70042;52.494;5.502;2024-02-15T01:54:42;101670.13;;;15.94;62.79
80678;BME280;70042;52.494;5.502;2024-02-15T01:57:08;101665.75;;;15.93;62.72
80678;BME280;70042;52.494;5.502;2024-02-15T01:59:34;101670.13;;;15.95;62.76
80678;BME280;70042;52.494;5.502;2024-02-15T02:02:00;101663.97;;;15.96;63.06
80678;BME280;70042;52.494;5.502;2024-02-15T02:04:27;101656.06;;;15.96;62.98
80678;BME280;70042;52.494;5.502;2024-02-15T02:06:53;101651.66;;;15.97;62.96
80678;BME280;70042;52.494;5.502;2024-02-15T02:09:23;101661.31;;;15.98;62.59
80678;BME280;70042;52.494;5.502;2024-02-15T02:11:49;101658.66;;;15.98;62.92
80678;BME280;70042;52.494;5.502;2024-02-15T02:14:16;101651.66;;;15.97;62.74
80678;BME280;70042;52.494;5.502;2024-02-15T02:16:41;101656.91;;;15.98;62.75
80678;BME280;70042;52.494;5.502;2024-02-15T02:19:07;101653.41;;;15.99;62.88
80678;BME280;70042;52.494;5.502;2024-02-15T02:21:34;101650.75;;;15.98;62.61
80678;BME280;70042;52.494;5.502;2024-02-15T02:24:02;101657.81;;;15.97;62.79
80678;BME280;70042;52.494;5.502;2024-02-15T02:26:33;101654.31;;;15.97;62.68
80678;BME280;70042;52.494;5.502;2024-02-15T02:29:00;101648.16;;;15.96;62.57
80678;BME280;70042;52.494;5.502;2024-02-15T02:31:33;101647.28;;;15.96;63.08
80678;BME280;70042;52.494;5.502;2024-02-15T02:33:58;101638.50;;;15.97;62.71
80678;BME280;70042;52.494;5.502;2024-02-15T02:36:24;101643.75;;;15.97;63.00
80678;BME280;70042;52.494;5.502;2024-02-15T02:38:52;101642.84;;;15.98;63.05
80678;BME280;70042;52.494;5.502;2024-02-15T02:41:17;101640.22;;;15.98;62.62
80678;BME280;70042;52.494;5.502;2024-02-15T02:43:44;101639.38;;;15.97;62.73
80678;BME280;70042;52.494;5.502;2024-02-15T02:46:10;101640.22;;;15.98;62.64
80678;BME280;70042;52.494;5.502;2024-02-15T02:48:37;101636.72;;;15.99;63.01
80678;BME280;70042;52.494;5.502;2024-02-15T02:51:03;101634.94;;;15.98;62.63
80678;BME280;70042;52.494;5.502;2024-02-15T02:53:28;101627.94;;;15.97;62.98
80678;BME280;70042;52.494;5.502;2024-02-15T02:55:56;101627.94;;;15.97;62.52
80678;BME280;70042;52.494;5.502;2024-02-15T02:58:22;101629.69;;;15.96;62.78
80678;BME280;70042;52.494;5.502;2024-02-15T03:00:51;101636.72;;;15.96;62.57
80678;BME280;70042;52.494;5.502;2024-02-15T03:03:17;101637.59;;;15.96;62.83
80678;BME280;70042;52.494;5.502;2024-02-15T03:05:44;101636.72;;;15.96;62.99
80678;BME280;70042;52.494;5.502;2024-02-15T03:08:11;101636.72;;;15.96;62.75
80678;BME280;70042;52.494;5.502;2024-02-15T03:10:37;101632.31;;;15.98;62.52
80678;BME280;70042;52.494;5.502;2024-02-15T03:13:03;101630.56;;;15.98;62.52
80678;BME280;70042;52.494;5.502;2024-02-15T03:15:30;101637.59;;;15.99;63.00
80678;BME280;70042;52.494;5.502;2024-02-15T03:17:58;101638.47;;;16.00;62.68
80678;BME280;70042;52.494;5.502;2024-02-15T03:20:23;101642.00;;;16.00;62.94
80678;BME280;70042;52.494;5.502;2024-02-15T03:22:58;101649.91;;;16.00;62.98
80678;BME280;70042;52.494;5.502;2024-02-15T03:25:25;101641.09;;;16.01;63.04
80678;BME280;70042;52.494;5.502;2024-02-15T03:27:55;101630.56;;;16.00;62.45
80678;BME280;70042;52.494;5.502;2024-02-15T03:30:23;101636.72;;;15.99;62.98
80678;BME280;70042;52.494;5.502;2024-02-15T03:32:52;101635.84;;;16.00;62.89
80678;BME280;70042;52.494;5.502;2024-02-15T03:35:18;101640.22;;;15.98;62.88
80678;BME280;70042;52.494;5.502;2024-02-15T03:37:44;101634.09;;;15.97;62.68
80678;BME280;70042;52.494;5.502;2024-02-15T03:40:10;101634.94;;;15.98;62.61
80678;BME280;70042;52.494;5.502;2024-02-15T03:42:36;101637.59;;;15.98;63.06
80678;BME280;70042;52.494;5.502;2024-02-15T03:45:05;101629.69;;;15.98;62.80
80678;BME280;70042;52.494;5.502;2024-02-15T03:47:35;101634.94;;;15.98;62.80
80678;BME280;70042;52.494;5.502;2024-02-15T03:50:04;101634.94;;;15.98;63.14
80678;BME280;70042;52.494;5.502;2024-02-15T03:52:31;101633.22;;;15.97;62.87
80678;BME280;70042;52.494;5.502;2024-02-15T03:54:56;101629.69;;;15.98;63.04
80678;BME280;70042;52.494;5.502;2024-02-15T03:57:23;101635.84;;;15.98;62.76
80678;BME280;70042;52.494;5.502;2024-02-15T03:59:48;101633.19;;;16.00;62.96
80678;BME280;70042;52.494;5.502;2024-02-15T04:02:21;101631.44;;;15.99;62.65
80678;BME280;70042;52.494;5.502;2024-02-15T04:04:49;101620.91;;;15.99;62.93
80678;BME280;70042;52.494;5.502;2024-02-15T04:07:15;101626.16;;;15.99;62.89
80678;BME280;70042;52.494;5.502;2024-02-15T04:09:45;101618.28;;;15.97;62.97
80678;BME280;70042;52.494;5.502;2024-02-15T04:12:11;101617.41;;;15.97;63.13
80678;BME280;70042;52.494;5.502;2024-02-15T04:14:37;101622.69;;;15.97;62.70
80678;BME280;70042;52.494;5.502;2024-02-15T04:17:06;101613.88;;;15.98;62.94
80678;BME280;70042;52.494;5.502;2024-02-15T04:19:31;101613.00;;;15.99;63.26
80678;BME280;70042;52.494;5.502;2024-02-15T04:21:57;101617.38;;;16.00;63.04
80678;BME280;70042;52.494;5.502;2024-02-15T04:24:22;101622.66;;;16.00;62.75
80678;BME280;70042;52.494;5.502;2024-02-15T04:26:48;101609.47;;;16.00;63.05
80678;BME280;70042;52.494;5.502;2024-02-15T04:29:15;101613.84;;;16.01;62.80
80678;BME280;70042;52.494;5.502;2024-02-15T04:31:41;101608.56;;;16.01;62.98
80678;BME280;70042;52.494;5.502;2024-02-15T04:34:08;101604.19;;;16.01;62.97
80678;BME280;70042;52.494;5.502;2024-02-15T04:36:36;101598.91;;;16.01;62.89
80678;BME280;70042;52.494;5.502;2024-02-15T04:39:02;101598.94;;;16.00;62.78
80678;BME280;70042;52.494;5.502;2024-02-15T04:41:28;101584.00;;;15.99;62.81
80678;BME280;70042;52.494;5.502;2024-02-15T04:43:54;101584.88;;;15.99;63.05
80678;BME280;70042;52.494;5.502;2024-02-15T04:46:20;101586.63;;;15.99;63.06
80678;BME280;70042;52.494;5.502;2024-02-15T04:48:50;101571.69;;;15.98;63.12
80678;BME280;70042;52.494;5.502;2024-02-15T04:51:16;101564.66;;;15.98;62.72
80678;BME280;70042;52.494;5.502;2024-02-15T04:53:42;101573.47;;;15.99;63.08
80678;BME280;70042;52.494;5.502;2024-02-15T04:56:07;101555.00;;;15.99;63.16
80678;BME280;70042;52.494;5.502;2024-02-15T04:58:39;101554.13;;;16.00;63.14
80678;BME280;70042;52.494;5.502;2024-02-15T05:01:14;101563.75;;;16.01;63.00
80678;BME280;70042;52.494;5.502;2024-02-15T05:03:43;101562.03;;;16.00;62.67
80678;BME280;70042;52.494;5.502;2024-02-15T05:06:09;101567.28;;;16.01;62.74
80678;BME280;70042;52.494;5.502;2024-02-15T05:08:36;101565.56;;;16.00;63.15
80678;BME280;70042;52.494;5.502;2024-02-15T05:11:03;101563.75;;;16.01;62.58
80678;BME280;70042;52.494;5.502;2024-02-15T05:13:30;101561.16;;;15.99;62.77
80678;BME280;70042;52.494;5.502;2024-02-15T05:15:56;101568.19;;;15.99;62.72
80678;BME280;70042;52.494;5.502;2024-02-15T05:18:21;101565.56;;;15.99;63.17
80678;BME280;70042;52.494;5.502;2024-02-15T05:20:46;101573.47;;;15.99;62.59
80678;BME280;70042;52.494;5.502;2024-02-15T05:23:12;101575.22;;;15.98;63.19
80678;BME280;70042;52.494;5.502;2024-02-15T05:25:37;101571.69;;;15.98;62.89
80678;BME280;70042;52.494;5.502;2024-02-15T05:28:03;101579.59;;;15.99;63.31
80678;BME280;70042;52.494;5.502;2024-02-15T05:30:31;101578.72;;;16.00;62.70
80678;BME280;70042;52.494;5.502;2024-02-15T05:32:58;101572.56;;;16.01;62.72
80678;BME280;70042;52.494;5.502;2024-02-15T05:35:23;101576.94;;;16.02;62.62
80678;BME280;70042;52.494;5.502;2024-02-15T05:37:49;101577.81;;;16.01;63.06
80678;BME280;70042;52.494;5.502;2024-02-15T05:40:18;101565.53;;;16.02;63.05
80678;BME280;70042;52.494;5.502;2024-02-15T05:42:44;101543.56;;;16.03;62.84
80678;BME280;70042;52.494;5.502;2024-02-15T05:47:54;101526.88;;;16.01;62.99
80678;BME280;70042;52.494;5.502;2024-02-15T05:50:20;101524.22;;;16.01;63.50
80678;BME280;70042;52.494;5.502;2024-02-15T05:52:47;101517.22;;;16.00;63.42
80678;BME280;70042;52.494;5.502;2024-02-15T05:55:12;101498.78;;;15.98;62.80
80678;BME280;70042;52.494;5.502;2024-02-15T05:57:43;101492.63;;;15.99;63.16
80678;BME280;70042;52.494;5.502;2024-02-15T06:00:08;101492.63;;;15.99;62.67
80678;BME280;70042;52.494;5.502;2024-02-15T06:02:34;101490.88;;;16.00;63.26
80678;BME280;70042;52.494;5.502;2024-02-15T06:05:00;101497.03;;;16.00;62.84
80678;BME280;70042;52.494;5.502;2024-02-15T06:07:29;101491.75;;;16.00;63.13
80678;BME280;70042;52.494;5.502;2024-02-15T06:09:54;101495.25;;;16.01;63.18
80678;BME280;70042;52.494;5.502;2024-02-15T06:12:19;101500.50;;;16.02;63.01
80678;BME280;70042;52.494;5.502;2024-02-15T06:14:45;101495.25;;;16.02;62.95
80678;BME280;70042;52.494;5.502;2024-02-15T06:17:11;101501.41;;;16.03;63.25
80678;BME280;70042;52.494;5.502;2024-02-15T06:19:37;101504.03;;;16.03;62.81
80678;BME280;70042;52.494;5.502;2024-02-15T06:22:03;101493.47;;;16.01;62.90
80678;BME280;70042;52.494;5.502;2024-02-15T06:24:29;101497.88;;;16.01;63.03
80678;BME280;70042;52.494;5.502;2024-02-15T06:26:55;101497.88;;;16.01;62.87
80678;BME280;70042;52.494;5.502;2024-02-15T06:29:25;101500.50;;;16.01;63.24
80678;BME280;70042;52.494;5.502;2024-02-15T06:32:09;101500.53;;;15.99;63.28
80678;BME280;70042;52.494;5.502;2024-02-15T06:34:53;101493.50;;;16.00;63.10
80678;BME280;70042;52.494;5.502;2024-02-15T06:37:38;101508.41;;;16.01;62.87
80678;BME280;70042;52.494;5.502;2024-02-15T06:40:22;101512.84;;;16.00;63.13
80678;BME280;70042;52.494;5.502;2024-02-15T06:42:48;101526.88;;;16.02;63.10
80678;BME280;70042;52.494;5.502;2024-02-15T06:45:13;101526.00;;;16.02;63.01
80678;BME280;70042;52.494;5.502;2024-02-15T06:47:42;101526.88;;;16.02;63.02
80678;BME280;70042;52.494;5.502;2024-02-15T06:50:12;101529.50;;;16.02;62.81
80678;BME280;70042;52.494;5.502;2024-02-15T06:52:41;101527.75;;;16.03;63.28
80678;BME280;70042;52.494;5.502;2024-02-15T06:55:07;101524.25;;;16.04;62.97
80678;BME280;70042;52.494;5.502;2024-02-15T06:57:34;101522.47;;;16.03;63.07
80678;BME280;70042;52.494;5.502;2024-02-15T07:00:05;101518.09;;;16.02;63.05
80678;BME280;70042;52.494;5.502;2024-02-15T07:02:34;101528.63;;;16.02;63.23
80678;BME280;70042;52.494;5.502;2024-02-15T07:05:00;101511.97;;;16.00;63.22
80678;BME280;70042;52.494;5.502;2024-02-15T07:07:26;101522.47;;;16.01;62.90
80678;BME280;70042;52.494;5.502;2024-02-15T07:09:51;101518.13;;;16.00;63.21
80678;BME280;70042;52.494;5.502;2024-02-15T07:12:17;101530.38;;;16.01;63.06
80678;BME280;70042;52.494;5.502;2024-02-15T07:14:44;101522.47;;;16.03;62.84
80678;BME280;70042;52.494;5.502;2024-02-15T07:17:10;101532.16;;;16.04;63.19
80678;BME280;70042;52.494;5.502;2024-02-15T07:19:36;101540.06;;;16.04;62.88
80678;BME280;70042;52.494;5.502;2024-02-15T07:22:03;101526.88;;;16.04;63.27
80678;BME280;70042;52.494;5.502;2024-02-15T07:24:29;101522.47;;;16.03;63.03
80678;BME280;70042;52.494;5.502;2024-02-15T07:26:54;101529.50;;;16.04;63.20
80678;BME280;70042;52.494;5.502;2024-02-15T07:29:23;101534.78;;;16.04;62.83
80678;BME280;70042;52.494;5.502;2024-02-15T07:31:49;101543.56;;;16.03;63.08
80678;BME280;70042;52.494;5.502;2024-02-15T07:34:15;101548.84;;;16.03;63.03
80678;BME280;70042;52.494;5.502;2024-02-15T07:36:42;101554.09;;;16.01;63.18
80678;BME280;70042;52.494;5.502;2024-02-15T07:39:08;101565.53;;;16.02;63.48
80678;BME280;70042;52.494;5.502;2024-02-15T07:41:38;101557.63;;;16.02;63.05
80678;BME280;70042;52.494;5.502;2024-02-15T07:44:04;101526.00;;;16.02;63.19
80678;BME280;70042;52.494;5.502;2024-02-15T07:46:29;101511.94;;;16.03;63.06
80678;BME280;70042;52.494;5.502;2024-02-15T07:48:55;101516.31;;;16.02;62.86
80678;BME280;70042;52.494;5.502;2024-02-15T07:51:21;101523.34;;;16.02;63.41
80678;BME280;70042;52.494;5.502;2024-02-15T07:53:47;101536.53;;;16.04;63.04
80678;BME280;70042;52.494;5.502;2024-02-15T07:56:14;101530.34;;;16.05;63.39
80678;BME280;70042;52.494;5.502;2024-02-15T07:58:45;101532.13;;;16.06;63.09
80678;BME280;70042;52.494;5.502;2024-02-15T08:01:15;101528.59;;;16.05;63.19
80678;BME280;70042;52.494;5.502;2024-02-15T08:03:41;101530.38;;;16.06;63.14
80678;BME280;70042;52.494;5.502;2024-02-15T08:06:14;101536.50;;;16.05;63.29
80678;BME280;70042;52.494;5.502;2024-02-15T08:08:44;101534.78;;;16.04;63.24
80678;BME280;70042;52.494;5.502;2024-02-15T08:11:13;101540.91;;;16.05;63.26
80678;BME280;70042;52.494;5.502;2024-02-15T08:13:45;101533.91;;;16.04;63.47
80678;BME280;70042;52.494;5.502;2024-02-15T08:16:13;101529.50;;;16.04;63.43
80678;BME280;70042;52.494;5.502;2024-02-15T08:18:41;101522.47;;;16.03;63.25
80678;BME280;70042;52.494;5.502;2024-02-15T08:21:09;101523.34;;;16.04;63.26
80678;BME280;70042;52.494;5.502;2024-02-15T08:23:35;101518.97;;;16.04;62.94
80678;BME280;70042;52.494;5.502;2024-02-15T08:26:01;101533.88;;;16.05;63.29
80678;BME280;70042;52.494;5.502;2024-02-15T08:28:27;101525.09;;;16.06;63.01
80678;BME280;70042;52.494;5.502;2024-02-15T08:30:54;101520.69;;;16.05;63.29
80678;BME280;70042;52.494;5.502;2024-02-15T08:33:20;101517.19;;;16.06;63.27
80678;BME280;70042;52.494;5.502;2024-02-15T08:35:46;101523.34;;;16.05;62.97
80678;BME280;70042;52.494;5.502;2024-02-15T08:38:11;101526.84;;;16.06;63.51
80678;BME280;70042;52.494;5.502;2024-02-15T08:40:37;101528.59;;;16.05;63.17
80678;BME280;70042;52.494;5.502;2024-02-15T08:43:02;101523.34;;;16.05;63.00
80678;BME280;70042;52.494;5.502;2024-02-15T08:45:28;101525.09;;;16.05;63.05
80678;BME280;70042;52.494;5.502;2024-02-15T08:47:53;101517.22;;;16.03;63.19
80678;BME280;70042;52.494;5.502;2024-02-15T08:50:21;101514.56;;;16.03;63.45
80678;BME280;70042;52.494;5.502;2024-02-15T08:52:48;101508.41;;;16.02;63.12
80678;BME280;70042;52.494;5.502;2024-02-15T08:55:15;101508.44;;;16.04;63.35
80678;BME280;70042;52.494;5.502;2024-02-15T08:57:40;101508.44;;;16.04;63.55
80678;BME280;70042;52.494;5.502;2024-02-15T09:00:06;101494.34;;;16.05;63.24
80678;BME280;70042;52.494;5.502;2024-02-15T09:02:39;101496.09;;;16.06;63.13
80678;BME280;70042;52.494;5.502;2024-02-15T09:05:05;101500.50;;;16.06;63.51
80678;BME280;70042;52.494;5.502;2024-02-15T09:07:31;101500.50;;;16.07;63.20
80678;BME280;70042;52.494;5.502;2024-02-15T09:09:56;101503.97;;;16.08;63.44
80678;BME280;70042;52.494;5.502;2024-02-15T09:12:22;101502.22;;;16.08;63.06
80678;BME280;70042;52.494;5.502;2024-02-15T09:14:47;101497.84;;;16.07;63.42
80678;BME280;70042;52.494;5.502;2024-02-15T09:17:14;101503.97;;;16.08;63.06
80678;BME280;70042;52.494;5.502;2024-02-15T09:19:39;101507.53;;;16.07;63.15
80678;BME280;70042;52.494;5.502;2024-02-15T09:22:05;101505.75;;;16.07;63.27
80678;BME280;70042;52.494;5.502;2024-02-15T09:24:31;101508.41;;;16.07;63.08
80678;BME280;70042;52.494;5.502;2024-02-15T09:26:59;101513.66;;;16.07;63.23
80678;BME280;70042;52.494;5.502;2024-02-15T09:29:27;101519.78;;;16.08;63.06
80678;BME280;70042;52.494;5.502;2024-02-15T09:31:54;101522.44;;;16.09;63.64
80678;BME280;70042;52.494;5.502;2024-02-15T09:34:20;101517.16;;;16.09;63.31
80678;BME280;70042;52.494;5.502;2024-02-15T09:36:45;101516.28;;;16.09;63.46
80678;BME280;70042;52.494;5.502;2024-02-15T09:39:11;101518.91;;;16.10;63.35
80678;BME280;70042;52.494;5.502;2024-02-15T09:41:39;101518.91;;;16.10;63.45
80678;BME280;70042;52.494;5.502;2024-02-15T09:44:05;101522.44;;;16.09;63.28
80678;BME280;70042;52.494;5.502;2024-02-15T09:46:35;101511.88;;;16.09;63.18
80678;BME280;70042;52.494;5.502;2024-02-15T09:49:01;101518.91;;;16.09;63.51
80678;BME280;70042;52.494;5.502;2024-02-15T09:51:29;101511.03;;;16.07;63.10
80678;BME280;70042;52.494;5.502;2024-02-15T09:53:57;101521.56;;;16.07;63.36
80678;BME280;70042;52.494;5.502;2024-02-15T09:56:24;101508.41;;;16.07;63.46
80678;BME280;70042;52.494;5.502;2024-02-15T09:58:51;101511.91;;;16.06;63.55
80678;BME280;70042;52.494;5.502;2024-02-15T10:01:19;101508.41;;;16.07;63.39
80678;BME280;70042;52.494;5.502;2024-02-15T10:03:49;101511.00;;;16.09;63.71
80678;BME280;70042;52.494;5.502;2024-02-15T10:06:16;101519.78;;;16.09;63.07
80678;BME280;70042;52.494;5.502;2024-02-15T10:08:43;101515.41;;;16.08;63.47
80678;BME280;70042;52.494;5.502;2024-02-15T10:11:10;101518.03;;;16.08;63.21
80678;BME280;70042;52.494;5.502;2024-02-15T10:13:36;101510.13;;;16.10;63.34
80678;BME280;70042;52.494;5.502;2024-02-15T10:16:15;101519.75;;;16.11;63.30
80678;BME280;70042;52.494;5.502;2024-02-15T10:18:41;101515.38;;;16.11;63.20
80678;BME280;70042;52.494;5.502;2024-02-15T10:21:07;101520.66;;;16.11;63.30
80678;BME280;70042;52.494;5.502;2024-02-15T10:23:32;101520.66;;;16.11;63.37
80678;BME280;70042;52.494;5.502;2024-02-15T10:25:58;101521.56;;;16.10;63.30
80678;BME280;70042;52.494;5.502;2024-02-15T10:28:24;101514.50;;;16.11;63.05
80678;BME280;70042;52.494;5.502;2024-02-15T10:30:50;101518.03;;;16.10;63.58
80678;BME280;70042;52.494;5.502;2024-02-15T10:33:25;101516.28;;;16.09;63.49
80678;BME280;70042;52.494;5.502;2024-02-15T10:36:07;101524.19;;;16.10;63.23
80678;BME280;70042;52.494;5.502;2024-02-15T10:38:33;101520.66;;;16.11;63.31
80678;BME280;70042;52.494;5.502;2024-02-15T10:41:06;101520.66;;;16.11;63.13
80678;BME280;70042;52.494;5.502;2024-02-15T10:43:36;101513.63;;;16.12;63.69
80678;BME280;70042;52.494;5.502;2024-02-15T10:46:04;101512.75;;;16.13;63.33
80678;BME280;70042;52.494;5.502;2024-02-15T10:48:33;101508.34;;;16.13;63.42
80678;BME280;70042;52.494;5.502;2024-02-15T10:50:59;101500.44;;;16.13;63.23
80678;BME280;70042;52.494;5.502;2024-02-15T10:53:27;101504.84;;;16.13;63.37
80678;BME280;70042;52.494;5.502;2024-02-15T10:56:18;101506.59;;;16.12;63.46
80678;BME280;70042;52.494;5.502;2024-02-15T10:58:59;101509.22;;;16.12;63.40
80678;BME280;70042;52.494;5.502;2024-02-15T11:01:29;101507.47;;;16.11;63.58
80678;BME280;70042;52.494;5.502;2024-02-15T11:03:59;101509.22;;;16.11;63.38
80678;BME280;70042;52.494;5.502;2024-02-15T11:06:30;101505.75;;;16.10;63.71
80678;BME280;70042;52.494;5.502;2024-02-15T11:08:58;101495.19;;;16.10;63.79
80678;BME280;70042;52.494;5.502;2024-02-15T11:11:25;101491.66;;;16.11;63.52
80678;BME280;70042;52.494;5.502;2024-02-15T11:14:23;101502.19;;;16.13;63.79
80678;BME280;70042;52.494;5.502;2024-02-15T11:16:49;101498.66;;;16.14;63.38
80678;BME280;70042;52.494;5.502;2024-02-15T11:22:00;101488.97;;;16.14;63.58
80678;BME280;70042;52.494;5.502;2024-02-15T11:24:30;101496.03;;;16.15;63.39
80678;BME280;70042;52.494;5.502;2024-02-15T11:26:58;101490.75;;;16.15;63.48
80678;BME280;70042;52.494;5.502;2024-02-15T11:29:49;101495.13;;;16.16;63.38
80678;BME280;70042;52.494;5.502;2024-02-15T11:35:08;101489.00;;;16.16;63.40
80678;BME280;70042;52.494;5.502;2024-02-15T11:42:46;101477.56;;;16.15;63.76
80678;BME280;70042;52.494;5.502;2024-02-15T11:45:12;101474.94;;;16.15;63.48
80678;BME280;70042;52.494;5.502;2024-02-15T11:47:39;101470.53;;;16.16;63.50
80678;BME280;70042;52.494;5.502;2024-02-15T11:50:09;101473.13;;;16.17;63.42
80678;BME280;70042;52.494;5.502;2024-02-15T11:52:40;101471.38;;;16.18;63.33
80678;BME280;70042;52.494;5.502;2024-02-15T11:55:08;101474.91;;;16.18;63.67
80678;BME280;70042;52.494;5.502;2024-02-15T11:57:38;101473.13;;;16.17;63.52
80678;BME280;70042;52.494;5.502;2024-02-15T12:00:39;101476.66;;;16.19;63.61
80678;BME280;70042;52.494;5.502;2024-02-15T12:03:24;101475.78;;;16.19;63.47
80678;BME280;70042;52.494;5.502;2024-02-15T12:06:08;101465.22;;;16.17;63.81
80678;BME280;70042;52.494;5.502;2024-02-15T12:08:53;101473.13;;;16.17;63.53
80678;BME280;70042;52.494;5.502;2024-02-15T12:11:37;101460.84;;;16.18;63.37
80678;BME280;70042;52.494;5.502;2024-02-15T12:14:30;101462.59;;;16.17;63.62
80678;BME280;70042;52.494;5.502;2024-02-15T12:17:14;101447.69;;;16.16;63.80
80678;BME280;70042;52.494;5.502;2024-02-15T12:20:02;101452.06;;;16.17;63.95
80678;BME280;70042;52.494;5.502;2024-02-15T12:22:46;101438.00;;;16.18;63.56
80678;BME280;70042;52.494;5.502;2024-02-15T12:25:16;101444.13;;;16.19;63.71
80678;BME280;70042;52.494;5.502;2024-02-15T12:27:45;101452.03;;;16.20;63.37
80678;BME280;70042;52.494;5.502;2024-02-15T12:30:18;101441.47;;;16.20;63.56
80678;BME280;70042;52.494;5.502;2024-02-15T12:32:47;101441.47;;;16.20;63.56
80678;BME280;70042;52.494;5.502;2024-02-15T12:35:15;101433.56;;;16.22;63.30
80678;BME280;70042;52.494;5.502;2024-02-15T12:38:08;101430.06;;;16.21;63.58
80678;BME280;70042;52.494;5.502;2024-02-15T12:40:39;101432.69;;;16.21;63.53
80678;BME280;70042;52.494;5.502;2024-02-15T12:43:06;101437.97;;;16.21;63.71
80678;BME280;70042;52.494;5.502;2024-02-15T12:45:35;101428.28;;;16.20;63.30
80678;BME280;70042;52.494;5.502;2024-02-15T12:48:03;101419.50;;;16.21;63.74
80678;BME280;70042;52.494;5.502;2024-02-15T12:50:30;101423.91;;;16.22;63.48
80678;BME280;70042;52.494;5.502;2024-02-15T12:52:56;101425.66;;;16.22;63.57
80678;BME280;70042;52.494;5.502;2024-02-15T12:55:32;101430.91;;;16.23;63.62
80678;BME280;70042;52.494;5.502;2024-02-15T12:58:00;101408.03;;;16.24;63.32
80678;BME280;70042;52.494;5.502;2024-02-15T13:00:30;101415.97;;;16.25;63.56
80678;BME280;70042;52.494;5.502;2024-02-15T13:03:04;101412.44;;;16.25;63.78
80678;BME280;70042;52.494;5.502;2024-02-15T13:05:31;101402.78;;;16.25;63.76
80678;BME280;70042;52.494;5.502;2024-02-15T13:07:57;101401.88;;;16.26;63.41